createdAt,value
2022-07-29T00:00:30.955Z,51.88
2022-07-29T00:01:30.809Z,47.22
2022-07-29T00:02:30.820Z,41.74
2022-07-29T00:03:30.976Z,47.36
2022-07-29T00:04:30.829Z,47.87
2022-07-29T00:05:30.830Z,41.74
2022-07-29T00:06:30.823Z,43.35
2022-07-29T00:07:30.772Z,56.67
2022-07-29T00:08:30.803Z,42.18
2022-07-29T00:09:30.729Z,49.05
2022-07-29T00:10:30.759Z,43.69
2022-07-29T00:11:30.741Z,41.57
2022-07-29T00:12:30.724Z,45.34
2022-07-29T00:13:32.137Z,48.16
2022-07-29T00:14:30.689Z,48.11
2022-07-29T00:15:30.695Z,47.13
2022-07-29T00:16:30.784Z,41.35
2022-07-29T00:17:30.717Z,41.31
2022-07-29T00:18:30.685Z,41.49
2022-07-29T00:19:30.736Z,41.16
2022-07-29T00:20:30.674Z,41.48
2022-07-29T00:21:30.630Z,40.95
2022-07-29T00:22:30.639Z,40.47
2022-07-29T00:23:32.670Z,43.92
2022-07-29T00:24:31.697Z,47.59
2022-07-29T00:25:30.590Z,50.77
2022-07-29T00:26:30.631Z,42.21
2022-07-29T00:27:30.636Z,41.58
2022-07-29T00:28:30.634Z,53.42
2022-07-29T00:29:34.038Z,42.41
2022-07-29T00:30:31.727Z,46.24
2022-07-29T00:31:30.777Z,56.93
2022-07-29T00:32:30.578Z,45.68
2022-07-29T00:33:30.557Z,47.87
2022-07-29T00:34:30.589Z,48.13
2022-07-29T00:35:30.528Z,53.48
2022-07-29T00:36:30.534Z,48.46
2022-07-29T00:37:30.519Z,50.22
2022-07-29T00:38:30.531Z,49.68
2022-07-29T00:39:30.504Z,55.27
2022-07-29T00:40:30.488Z,50.52
2022-07-29T00:41:30.470Z,51.73
2022-07-29T00:42:30.452Z,50.07
2022-07-29T00:43:30.474Z,49.14
2022-07-29T00:44:30.499Z,56.27
2022-07-29T00:45:30.467Z,43.24
2022-07-29T00:46:30.492Z,46.14
2022-07-29T00:47:30.473Z,52.04
2022-07-29T00:48:30.430Z,50.75
2022-07-29T00:49:30.459Z,61.02
2022-07-29T00:50:30.409Z,62.82
2022-07-29T00:51:30.395Z,41.44
2022-07-29T00:52:30.405Z,53.10
2022-07-29T00:53:30.396Z,47.26
2022-07-29T00:54:30.409Z,52.26
2022-07-29T00:55:30.356Z,41.64
2022-07-29T00:56:30.399Z,46.38
2022-07-29T00:57:30.341Z,48.54
2022-07-29T00:58:30.343Z,46.97
2022-07-29T00:59:34.669Z,46.33
2022-07-29T01:00:31.485Z,46.25
2022-07-29T01:01:30.483Z,41.59
2022-07-29T01:02:30.369Z,48.09
2022-07-29T01:03:30.304Z,47.38
2022-07-29T01:04:30.353Z,46.96
2022-07-29T01:05:50.143Z,41.40
2022-07-29T01:06:31.281Z,42.87
2022-07-29T01:07:30.279Z,47.36
2022-07-29T01:08:30.273Z,40.72
2022-07-29T01:09:42.775Z,41.03
2022-07-29T01:10:31.271Z,50.65
2022-07-29T01:11:30.275Z,42.24
2022-07-29T01:12:30.230Z,45.49
2022-07-29T01:13:30.213Z,47.15
2022-07-29T01:14:30.250Z,41.36
2022-07-29T01:15:30.258Z,42.17
2022-07-29T01:16:30.269Z,45.89
2022-07-29T01:17:30.268Z,47.03
2022-07-29T01:18:30.192Z,49.84
2022-07-29T01:19:31.194Z,41.68
2022-07-29T01:20:31.516Z,51.28
2022-07-29T01:21:30.182Z,41.99
2022-07-29T01:22:30.193Z,47.48
2022-07-29T01:23:30.153Z,45.87
2022-07-29T01:24:30.154Z,41.56
2022-07-29T01:25:30.169Z,45.81
2022-07-29T01:26:30.179Z,45.80
2022-07-29T01:27:30.149Z,51.82
2022-07-29T01:28:30.102Z,43.79
2022-07-29T01:29:38.568Z,48.67
2022-07-29T01:30:31.130Z,42.27
2022-07-29T01:32:02.035Z,47.77
2022-07-29T01:32:30.157Z,42.49
2022-07-29T01:33:30.063Z,53.16
2022-07-29T01:34:30.040Z,42.15
2022-07-29T01:35:30.045Z,50.65
2022-07-29T01:36:30.034Z,44.40
2022-07-29T01:37:30.038Z,46.37
2022-07-29T01:38:30.016Z,42.10
2022-07-29T01:39:30.020Z,48.05
2022-07-29T01:40:30.007Z,42.59
2022-07-29T01:41:30.040Z,45.45
2022-07-29T01:42:29.987Z,48.27
2022-07-29T01:43:30.055Z,41.63
2022-07-29T01:44:29.969Z,42.92
2022-07-29T02:03:41.291Z,47.02
2022-07-29T02:04:41.355Z,44.19
2022-07-29T02:05:42.447Z,50.57
2022-07-29T02:06:42.443Z,49.91
2022-07-29T02:07:42.393Z,49.04
2022-07-29T02:08:42.406Z,42.81
2022-07-29T02:09:42.425Z,46.49
2022-07-29T02:10:42.389Z,41.42
2022-07-29T02:11:42.424Z,41.52
2022-07-29T02:12:42.392Z,41.19
2022-07-29T02:13:42.371Z,47.61
2022-07-29T02:14:42.421Z,47.55
2022-07-29T02:15:42.490Z,41.45
2022-07-29T02:16:42.331Z,47.55
2022-07-29T02:17:42.331Z,43.49
2022-07-29T02:18:42.320Z,45.26
2022-07-29T02:19:42.349Z,41.53
2022-07-29T02:20:42.361Z,42.13
2022-07-29T02:21:42.292Z,46.81
2022-07-29T02:22:42.318Z,41.97
2022-07-29T02:23:44.983Z,46.98
2022-07-29T02:24:43.254Z,46.28
2022-07-29T02:25:42.287Z,42.17
2022-07-29T02:26:42.263Z,52.85
2022-07-29T02:27:42.255Z,50.92
2022-07-29T02:28:42.245Z,57.51
2022-07-29T02:29:42.245Z,52.68
2022-07-29T02:30:42.949Z,46.40
2022-07-29T02:31:42.288Z,42.47
2022-07-29T02:32:42.206Z,52.70
2022-07-29T02:33:42.189Z,50.91
2022-07-29T02:34:42.218Z,49.91
2022-07-29T02:35:42.213Z,60.55
2022-07-29T02:36:42.201Z,52.41
2022-07-29T02:37:42.248Z,42.16
2022-07-29T02:38:42.144Z,42.88
2022-07-29T02:39:42.178Z,56.20
2022-07-29T02:40:42.138Z,54.28
2022-07-29T02:41:42.136Z,47.81
2022-07-29T02:42:42.151Z,44.09
2022-07-29T02:43:42.113Z,47.82
2022-07-29T02:44:42.226Z,54.05
2022-07-29T02:45:42.188Z,49.25
2022-07-29T02:46:42.143Z,47.59
2022-07-29T02:47:42.320Z,49.22
2022-07-29T02:48:42.127Z,47.99
2022-07-29T02:49:42.111Z,42.13
2022-07-29T02:50:42.154Z,42.87
2022-07-29T02:51:44.813Z,56.43
2022-07-29T02:52:42.098Z,53.92
2022-07-29T02:53:42.042Z,47.88
2022-07-29T02:54:42.036Z,51.17
2022-07-29T02:55:42.156Z,55.49
2022-07-29T02:56:42.025Z,51.82
2022-07-29T02:57:55.367Z,49.46
2022-07-29T02:58:43.020Z,48.28
2022-07-29T02:59:42.004Z,49.34
2022-07-29T03:00:42.118Z,48.98
2022-07-29T03:01:42.072Z,51.49
2022-07-29T03:02:41.980Z,56.08
2022-07-29T03:03:41.968Z,53.18
2022-07-29T03:04:42.034Z,49.12
2022-07-29T03:05:42.999Z,48.85
2022-07-29T03:06:41.958Z,52.17
2022-07-29T03:07:41.952Z,54.60
2022-07-29T03:08:41.945Z,54.50
2022-07-29T03:09:41.930Z,59.50
2022-07-29T03:10:42.003Z,54.41
2022-07-29T03:11:49.865Z,54.36
2022-07-29T03:12:42.949Z,60.50
2022-07-29T03:13:42.465Z,56.59
2022-07-29T03:14:41.919Z,62.37
2022-07-29T03:15:41.960Z,55.83
2022-07-29T03:16:41.881Z,45.79
2022-07-29T03:17:41.864Z,43.82
2022-07-29T03:18:41.882Z,43.21
2022-07-29T03:19:41.859Z,51.96
2022-07-29T03:20:41.836Z,53.56
2022-07-29T03:21:41.834Z,48.79
2022-07-29T03:22:41.834Z,52.36
2022-07-29T03:23:41.863Z,54.73
2022-07-29T03:24:41.823Z,58.84
2022-07-29T03:25:41.813Z,56.71
2022-07-29T03:26:41.798Z,53.00
2022-07-29T03:27:41.836Z,61.32
2022-07-29T03:28:41.790Z,55.25
2022-07-29T03:29:46.312Z,59.88
2022-07-29T03:30:42.942Z,55.93
2022-07-29T03:31:41.758Z,46.23
2022-07-29T03:32:41.775Z,64.57
2022-07-29T03:33:41.742Z,55.60
2022-07-29T03:34:41.764Z,57.36
2022-07-29T03:35:41.751Z,63.84
2022-07-29T03:36:41.717Z,59.62
2022-07-29T03:37:41.762Z,60.19
2022-07-29T03:38:41.754Z,56.74
2022-07-29T03:39:41.716Z,58.38
2022-07-29T03:40:41.689Z,59.81
2022-07-29T03:41:41.716Z,64.48
2022-07-29T03:42:41.678Z,57.12
2022-07-29T03:43:49.520Z,61.28
2022-07-29T03:44:42.670Z,55.12
2022-07-29T03:45:41.673Z,62.41
2022-07-29T04:02:37.973Z,59.91
2022-07-29T04:03:38.019Z,60.50
2022-07-29T04:04:38.024Z,60.48
2022-07-29T04:05:37.949Z,61.51
2022-07-29T04:06:39.091Z,59.20
2022-07-29T04:07:39.062Z,59.99
2022-07-29T04:08:39.081Z,52.15
2022-07-29T04:09:39.034Z,64.40
2022-07-29T04:10:39.041Z,65.17
2022-07-29T04:12:01.704Z,62.13
2022-07-29T04:12:40.014Z,53.99
2022-07-29T04:13:39.045Z,56.28
2022-07-29T04:14:38.999Z,61.92
2022-07-29T04:15:39.043Z,62.54
2022-07-29T04:16:39.000Z,56.30
2022-07-29T04:17:39.003Z,62.68
2022-07-29T04:18:38.971Z,59.72
2022-07-29T04:19:38.966Z,56.77
2022-07-29T04:20:38.976Z,59.27
2022-07-29T04:21:38.971Z,63.71
2022-07-29T04:22:38.978Z,63.97
2022-07-29T04:23:46.006Z,65.36
2022-07-29T04:24:44.030Z,65.04
2022-07-29T04:25:38.910Z,62.19
2022-07-29T04:26:39.695Z,52.88
2022-07-29T04:27:38.916Z,63.90
2022-07-29T04:28:38.909Z,58.59
2022-07-29T04:29:56.850Z,64.74
2022-07-29T04:30:39.904Z,63.30
2022-07-29T04:31:38.908Z,68.65
2022-07-29T04:32:38.872Z,61.64
2022-07-29T04:33:38.887Z,62.14
2022-07-29T04:34:38.838Z,66.88
2022-07-29T04:35:49.914Z,60.69
2022-07-29T04:36:39.823Z,63.18
2022-07-29T04:37:38.812Z,68.42
2022-07-29T04:38:38.837Z,68.24
2022-07-29T04:39:38.831Z,66.12
2022-07-29T04:40:38.827Z,68.53
2022-07-29T04:41:38.782Z,64.79
2022-07-29T04:42:45.066Z,59.01
2022-07-29T04:43:39.789Z,69.73
2022-07-29T04:44:39.657Z,67.97
2022-07-29T04:45:38.757Z,62.01
2022-07-29T04:46:38.795Z,67.06
2022-07-29T04:47:38.767Z,60.86
2022-07-29T04:48:38.756Z,64.80
2022-07-29T04:49:39.741Z,61.83
2022-07-29T04:50:38.732Z,63.01
2022-07-29T04:51:38.748Z,66.07
2022-07-29T04:52:38.755Z,67.30
2022-07-29T04:53:38.732Z,65.95
2022-07-29T04:54:38.711Z,66.52
2022-07-29T04:55:39.026Z,61.03
2022-07-29T04:56:38.699Z,68.20
2022-07-29T04:57:38.670Z,61.90
2022-07-29T04:58:38.659Z,66.13
2022-07-29T04:59:38.662Z,57.63
2022-07-29T05:00:38.743Z,60.84
2022-07-29T05:01:38.695Z,64.79
2022-07-29T05:02:38.727Z,65.16
2022-07-29T05:03:38.649Z,64.88
2022-07-29T05:04:38.615Z,59.67
2022-07-29T05:05:38.637Z,64.85
2022-07-29T05:06:38.616Z,58.35
2022-07-29T05:07:38.596Z,67.28
2022-07-29T05:08:38.580Z,65.03
2022-07-29T05:09:38.585Z,67.94
2022-07-29T05:10:38.603Z,63.25
2022-07-29T05:11:38.561Z,60.86
2022-07-29T05:12:38.598Z,61.87
2022-07-29T05:13:46.019Z,66.26
2022-07-29T05:14:39.546Z,66.99
2022-07-29T05:15:38.579Z,66.22
2022-07-29T05:16:38.518Z,65.29
2022-07-29T05:17:38.519Z,65.62
2022-07-29T05:18:38.536Z,65.73
2022-07-29T05:19:39.699Z,66.64
2022-07-29T05:20:38.504Z,60.77
2022-07-29T05:21:38.482Z,63.82
2022-07-29T05:22:38.479Z,65.48
2022-07-29T05:23:38.482Z,63.72
2022-07-29T05:24:38.482Z,67.00
2022-07-29T05:25:43.013Z,70.29
2022-07-29T05:26:40.188Z,59.01
2022-07-29T05:27:39.437Z,63.39
2022-07-29T05:28:38.447Z,64.56
2022-07-29T05:29:44.028Z,63.02
2022-07-29T05:30:39.509Z,69.06
2022-07-29T05:31:38.409Z,62.02
2022-07-29T05:32:38.397Z,68.77
2022-07-29T05:33:38.416Z,66.81
2022-07-29T05:34:38.378Z,64.95
2022-07-29T05:35:39.360Z,62.09
2022-07-29T05:36:39.411Z,55.56
2022-07-29T05:37:38.380Z,62.28
2022-07-29T05:38:38.380Z,66.81
2022-07-29T05:39:49.090Z,64.91
2022-07-29T05:40:40.193Z,65.66
2022-07-29T05:41:39.330Z,67.07
2022-07-29T05:42:38.332Z,62.99
2022-07-29T05:43:38.315Z,60.97
2022-07-29T05:44:38.332Z,66.48
2022-07-29T05:45:49.947Z,63.64
2022-07-29T05:46:39.402Z,66.89
2022-07-29T05:47:38.287Z,62.68
2022-07-29T05:48:39.310Z,62.22
2022-07-29T05:49:38.304Z,70.23
2022-07-29T05:50:38.274Z,67.06
2022-07-29T05:51:39.273Z,69.86
2022-07-29T05:52:39.253Z,68.56
2022-07-29T05:53:38.241Z,64.42
2022-07-29T05:54:38.232Z,62.02
2022-07-29T05:55:38.227Z,65.76
2022-07-29T05:56:38.226Z,66.58
2022-07-29T05:57:38.204Z,67.30
2022-07-29T05:58:38.214Z,62.53
2022-07-29T05:59:38.202Z,59.94
2022-07-29T06:00:38.201Z,64.84
2022-07-29T06:01:38.320Z,63.58
2022-07-29T06:02:39.125Z,62.69
2022-07-29T06:03:38.180Z,62.42
2022-07-29T06:04:38.221Z,68.92
2022-07-29T06:05:38.151Z,57.67
2022-07-29T06:06:39.147Z,62.99
2022-07-29T06:07:38.154Z,67.43
2022-07-29T06:08:38.147Z,62.38
2022-07-29T06:09:38.142Z,64.83
2022-07-29T06:10:38.125Z,61.40
2022-07-29T06:11:38.135Z,64.46
2022-07-29T06:12:38.128Z,62.98
2022-07-29T06:13:38.118Z,64.26
2022-07-29T06:14:38.091Z,68.71
2022-07-29T06:15:38.162Z,66.91
2022-07-29T06:16:38.188Z,64.44
2022-07-29T06:17:38.103Z,61.08
2022-07-29T06:18:39.077Z,67.34
2022-07-29T06:19:38.052Z,62.95
2022-07-29T06:20:38.077Z,65.01
2022-07-29T06:21:41.979Z,64.52
2022-07-29T06:22:38.030Z,62.06
2022-07-29T06:23:38.086Z,60.41
2022-07-29T06:24:38.003Z,67.64
2022-07-29T06:25:38.020Z,60.62
2022-07-29T06:26:39.914Z,59.36
2022-07-29T06:27:39.023Z,63.66
2022-07-29T06:28:37.978Z,65.06
2022-07-29T06:29:38.025Z,63.31
2022-07-29T06:30:38.046Z,68.84
2022-07-29T06:31:38.020Z,64.36
2022-07-29T06:32:42.712Z,63.58
2022-07-29T06:33:39.936Z,58.84
2022-07-29T06:34:37.946Z,59.15
2022-07-29T06:35:42.454Z,64.90
2022-07-29T06:36:39.725Z,62.06
2022-07-29T06:37:37.916Z,64.15
2022-07-29T06:38:42.864Z,69.72
2022-07-29T06:39:38.909Z,61.28
2022-07-29T06:40:37.896Z,69.49
2022-07-29T06:41:37.895Z,67.95
2022-07-29T06:42:37.875Z,65.81
2022-07-29T06:43:42.686Z,63.66
2022-07-29T06:44:38.883Z,67.61
2022-07-29T06:45:37.855Z,63.08
2022-07-29T06:46:37.958Z,59.58
2022-07-29T06:47:37.878Z,60.79
2022-07-29T06:48:37.863Z,66.25
2022-07-29T06:49:37.840Z,66.79
2022-07-29T06:50:37.824Z,65.85
2022-07-29T06:51:37.901Z,66.33
2022-07-29T06:52:37.814Z,66.37
2022-07-29T06:53:37.795Z,69.15
2022-07-29T06:54:37.803Z,61.60
2022-07-29T06:55:37.780Z,65.59
2022-07-29T06:56:38.927Z,62.42
2022-07-29T06:57:37.776Z,58.41
2022-07-29T06:58:37.766Z,64.14
2022-07-29T06:59:37.756Z,67.79
2022-07-29T07:00:38.690Z,60.96
2022-07-29T07:01:37.845Z,61.48
2022-07-29T07:02:37.786Z,63.80
2022-07-29T07:03:37.743Z,64.36
2022-07-29T07:04:37.707Z,59.96
2022-07-29T07:05:37.716Z,66.77
2022-07-29T07:06:37.764Z,66.88
2022-07-29T07:07:37.702Z,66.45
2022-07-29T07:08:37.706Z,69.11
2022-07-29T07:09:40.662Z,66.95
2022-07-29T07:10:37.675Z,65.20
2022-07-29T07:11:37.700Z,64.32
2022-07-29T07:12:37.683Z,68.61
2022-07-29T07:13:37.643Z,66.46
2022-07-29T07:14:37.825Z,65.18
2022-07-29T07:15:39.406Z,69.18
2022-07-29T07:16:37.668Z,68.01
2022-07-29T07:17:37.612Z,72.09
2022-07-29T07:18:37.726Z,67.58
2022-07-29T07:19:37.653Z,70.41
2022-07-29T07:20:37.603Z,65.30
2022-07-29T07:21:37.587Z,72.62
2022-07-29T07:22:39.002Z,69.37
2022-07-29T07:23:38.580Z,65.73
2022-07-29T07:24:37.574Z,64.98
2022-07-29T07:25:37.579Z,71.32
2022-07-29T07:26:37.552Z,74.52
2022-07-29T07:27:37.568Z,69.75
2022-07-29T07:28:37.646Z,63.17
2022-07-29T07:29:37.547Z,73.34
2022-07-29T07:30:37.583Z,60.81
2022-07-29T07:31:37.544Z,73.89
2022-07-29T07:32:37.518Z,72.18
2022-07-29T07:33:37.554Z,72.24
2022-07-29T07:34:37.475Z,63.63
2022-07-29T07:35:37.465Z,68.66
2022-07-29T07:36:37.454Z,65.79
2022-07-29T07:37:37.491Z,63.63
2022-07-29T07:38:37.466Z,67.36
2022-07-29T07:39:37.435Z,63.47
2022-07-29T07:40:37.435Z,61.53
2022-07-29T07:41:37.424Z,70.99
2022-07-29T07:42:37.428Z,68.83
2022-07-29T07:43:37.408Z,65.14
2022-07-29T07:44:57.184Z,64.64
2022-07-29T07:45:39.436Z,66.42
2022-07-29T07:46:37.384Z,64.89
2022-07-29T07:47:37.367Z,60.65
2022-07-29T07:48:37.426Z,72.84
2022-07-29T07:49:37.377Z,67.77
2022-07-29T07:50:37.363Z,67.64
2022-07-29T07:51:37.367Z,70.22
2022-07-29T07:52:37.355Z,64.44
2022-07-29T07:53:37.352Z,66.39
2022-07-29T07:54:37.340Z,60.22
2022-07-29T07:56:07.697Z,64.99
2022-07-29T07:56:39.310Z,67.18
2022-07-29T07:57:37.309Z,66.80
2022-07-29T07:58:37.286Z,65.83
2022-07-29T07:59:37.332Z,60.33
2022-07-29T08:00:37.297Z,61.95
2022-07-29T08:01:47.992Z,62.70
2022-07-29T08:02:38.280Z,70.49
2022-07-29T08:03:37.267Z,66.39
2022-07-29T08:04:37.321Z,66.80
2022-07-29T08:05:37.229Z,68.12
2022-07-29T08:06:37.249Z,67.47
2022-07-29T08:07:37.208Z,64.74
2022-07-29T08:08:37.225Z,62.96
2022-07-29T08:09:37.242Z,68.88
2022-07-29T08:10:37.192Z,70.88
2022-07-29T08:11:37.740Z,67.57
2022-07-29T08:12:37.198Z,66.91
2022-07-29T08:13:37.170Z,68.25
2022-07-29T08:14:37.185Z,64.19
2022-07-29T08:15:37.166Z,65.03
2022-07-29T08:16:37.229Z,68.29
2022-07-29T08:17:37.155Z,65.83
2022-07-29T08:18:37.142Z,68.03
2022-07-29T08:19:37.126Z,64.64
2022-07-29T08:20:37.677Z,69.10
2022-07-29T08:21:37.155Z,64.69
2022-07-29T08:22:37.746Z,66.17
2022-07-29T08:23:45.961Z,68.31
2022-07-29T08:24:38.087Z,62.56
2022-07-29T08:25:38.674Z,61.53
2022-07-29T08:26:37.083Z,70.14
2022-07-29T08:27:44.545Z,65.23
2022-07-29T08:28:39.056Z,65.75
2022-07-29T08:29:38.064Z,67.92
2022-07-29T08:30:37.033Z,67.28
2022-07-29T08:31:37.076Z,63.78
2022-07-29T08:32:53.177Z,64.96
2022-07-29T08:33:39.018Z,63.66
2022-07-29T08:34:37.001Z,64.01
2022-07-29T08:35:37.001Z,67.13
2022-07-29T08:36:36.980Z,64.61
2022-07-29T08:37:37.044Z,64.37
2022-07-29T08:38:37.009Z,65.35
2022-07-29T08:39:36.994Z,68.31
2022-07-29T08:40:36.950Z,68.28
2022-07-29T08:41:36.958Z,68.02
2022-07-29T08:42:36.949Z,70.78
2022-07-29T08:43:36.952Z,70.60
2022-07-29T08:44:36.940Z,68.01
2022-07-29T08:45:36.948Z,68.28
2022-07-29T08:46:36.910Z,67.33
2022-07-29T08:47:36.911Z,68.68
2022-07-29T08:48:36.897Z,71.99
2022-07-29T08:49:36.922Z,65.52
2022-07-29T08:50:36.896Z,67.78
2022-07-29T08:51:36.925Z,66.00
2022-07-29T08:52:37.862Z,64.47
2022-07-29T08:53:36.851Z,67.07
2022-07-29T08:54:36.856Z,63.39
2022-07-29T08:55:36.884Z,64.11
2022-07-29T08:56:36.825Z,64.93
2022-07-29T08:57:37.108Z,62.38
2022-07-29T08:58:38.393Z,66.75
2022-07-29T08:59:36.843Z,70.96
2022-07-29T09:00:36.839Z,63.83
2022-07-29T09:01:42.716Z,63.46
2022-07-29T09:02:38.792Z,65.00
2022-07-29T09:03:36.863Z,64.78
2022-07-29T09:04:36.782Z,64.84
2022-07-29T09:05:40.625Z,67.00
2022-07-29T09:06:38.754Z,69.45
2022-07-29T09:07:36.788Z,66.76
2022-07-29T09:08:36.761Z,69.06
2022-07-29T09:09:36.774Z,63.70
2022-07-29T09:10:36.730Z,67.56
2022-07-29T09:11:36.747Z,66.96
2022-07-29T09:12:38.142Z,63.09
2022-07-29T09:13:37.745Z,67.75
2022-07-29T09:14:36.731Z,70.29
2022-07-29T09:15:36.702Z,68.82
2022-07-29T09:16:52.180Z,67.10
2022-07-29T09:17:38.755Z,64.30
2022-07-29T09:18:36.694Z,69.28
2022-07-29T09:19:36.685Z,63.67
2022-07-29T09:20:36.656Z,66.73
2022-07-29T09:21:36.664Z,67.99
2022-07-29T09:22:41.459Z,68.74
2022-07-29T09:23:38.644Z,63.46
2022-07-29T09:24:36.640Z,64.69
2022-07-29T09:25:36.812Z,71.38
2022-07-29T09:26:36.609Z,68.03
2022-07-29T09:27:36.626Z,68.92
2022-07-29T09:28:36.615Z,67.04
2022-07-29T09:29:36.621Z,68.28
2022-07-29T09:30:36.680Z,62.87
2022-07-29T09:31:36.637Z,65.49
2022-07-29T09:32:36.585Z,65.62
2022-07-29T09:33:36.557Z,68.86
2022-07-29T09:34:36.555Z,65.38
2022-07-29T09:35:36.557Z,61.34
2022-07-29T09:36:36.530Z,65.05
2022-07-29T09:37:36.546Z,70.57
2022-07-29T09:38:36.525Z,69.38
2022-07-29T09:39:36.533Z,63.30
2022-07-29T09:40:36.528Z,66.41
2022-07-29T09:41:36.532Z,66.04
2022-07-29T09:42:36.510Z,69.67
2022-07-29T09:43:36.535Z,61.62
2022-07-29T09:44:36.532Z,70.03
2022-07-29T09:45:36.495Z,67.68
2022-07-29T09:46:37.266Z,64.12
2022-07-29T09:47:36.464Z,63.48
2022-07-29T09:48:36.669Z,65.90
2022-07-29T09:50:08.381Z,62.96
2022-07-29T09:50:36.487Z,61.66
2022-07-29T09:51:38.154Z,63.77
2022-07-29T09:53:08.371Z,68.66
2022-07-29T09:53:36.434Z,61.75
2022-07-29T09:54:36.428Z,69.61
2022-07-29T09:55:36.425Z,68.88
2022-07-29T09:56:36.413Z,67.19
2022-07-29T09:57:36.893Z,66.30
2022-07-29T09:58:36.399Z,66.61
2022-07-29T09:59:36.362Z,62.42
2022-07-29T10:00:37.438Z,71.57
2022-07-29T10:01:36.408Z,58.40
2022-07-29T10:02:36.341Z,65.12
2022-07-29T10:03:36.405Z,65.68
2022-07-29T10:04:36.369Z,69.92
2022-07-29T10:05:37.105Z,66.53
2022-07-29T10:06:36.336Z,65.90
2022-07-29T10:07:36.308Z,64.44
2022-07-29T10:08:36.341Z,74.89
2022-07-29T10:09:36.296Z,70.63
2022-07-29T10:10:36.320Z,63.45
2022-07-29T10:11:49.033Z,68.26
2022-07-29T10:12:37.256Z,66.48
2022-07-29T10:13:36.345Z,67.16
2022-07-29T10:14:36.252Z,68.92
2022-07-29T10:15:36.263Z,59.97
2022-07-29T10:17:08.201Z,59.09
2022-07-29T10:17:36.227Z,67.82
2022-07-29T10:18:37.824Z,69.03
2022-07-29T10:19:36.223Z,64.61
2022-07-29T10:20:36.930Z,65.86
2022-07-29T10:21:36.747Z,70.56
2022-07-29T10:22:52.326Z,67.92
2022-07-29T10:23:47.013Z,66.46
2022-07-29T10:24:37.177Z,69.42
2022-07-29T10:25:37.186Z,67.94
2022-07-29T10:26:36.175Z,67.48
2022-07-29T10:27:36.159Z,71.54
2022-07-29T10:28:36.169Z,65.86
2022-07-29T10:29:36.173Z,66.69
2022-07-29T10:30:36.501Z,69.60
2022-07-29T10:31:36.226Z,67.78
2022-07-29T10:32:36.154Z,69.76
2022-07-29T10:33:36.140Z,65.58
2022-07-29T10:34:36.135Z,69.16
2022-07-29T10:35:36.088Z,65.88
2022-07-29T10:36:37.103Z,65.29
2022-07-29T10:37:36.302Z,66.86
2022-07-29T10:38:36.822Z,67.67
2022-07-29T10:39:41.836Z,68.75
2022-07-29T10:40:37.059Z,64.75
2022-07-29T10:42:37.064Z,64.69
2022-07-29T10:43:36.082Z,66.68
2022-07-29T10:44:36.057Z,60.43
2022-07-29T10:45:36.826Z,70.17
2022-07-29T10:46:36.062Z,68.86
2022-07-29T10:47:36.009Z,69.75
2022-07-29T10:48:36.010Z,63.68
2022-07-29T10:49:36.065Z,66.41
2022-07-29T10:50:36.012Z,66.77
2022-07-29T10:51:36.001Z,61.82
2022-07-29T10:52:36.036Z,68.50
2022-07-29T10:53:35.985Z,68.79
2022-07-29T10:54:35.967Z,67.30
2022-07-29T10:55:36.339Z,66.29
2022-07-29T10:56:35.997Z,63.06
2022-07-29T10:57:53.653Z,69.10
2022-07-29T10:58:36.931Z,66.32
2022-07-29T10:59:36.391Z,69.01
2022-07-29T11:00:35.930Z,68.07
2022-07-29T11:01:37.145Z,68.98
2022-07-29T11:02:41.823Z,65.54
2022-07-29T11:03:38.871Z,66.92
2022-07-29T11:04:35.881Z,65.60
2022-07-29T11:05:40.111Z,68.86
2022-07-29T11:06:36.915Z,67.06
2022-07-29T11:07:45.813Z,65.98
2022-07-29T11:08:36.849Z,62.44
2022-07-29T11:09:38.350Z,60.93
2022-07-29T11:10:35.979Z,67.37
2022-07-29T11:11:35.839Z,67.92
2022-07-29T11:12:35.850Z,69.82
2022-07-29T11:13:41.063Z,65.12
2022-07-29T11:14:38.338Z,67.21
2022-07-29T11:15:35.842Z,67.63
2022-07-29T11:16:35.863Z,67.81
2022-07-29T11:17:46.922Z,68.25
2022-07-29T11:18:36.858Z,62.96
2022-07-29T11:19:36.025Z,67.73
2022-07-29T11:20:37.753Z,64.85
2022-07-29T11:21:53.466Z,68.09
2022-07-29T11:22:36.745Z,62.97
2022-07-29T11:23:36.785Z,68.83
2022-07-29T11:24:35.924Z,66.98
2022-07-29T11:25:42.977Z,68.70
2022-07-29T11:26:36.720Z,65.51
2022-07-29T11:27:35.806Z,68.50
2022-07-29T11:28:35.737Z,67.64
2022-07-29T11:29:39.830Z,61.37
2022-07-29T11:30:35.757Z,66.84
2022-07-29T11:31:35.686Z,66.70
2022-07-29T11:32:35.694Z,69.11
2022-07-29T11:33:54.615Z,64.71
2022-07-29T11:34:36.660Z,64.43
2022-07-29T11:35:38.479Z,66.13
2022-07-29T11:36:35.686Z,66.67
2022-07-29T11:37:42.452Z,62.11
2022-07-29T11:38:38.359Z,58.70
2022-07-29T11:39:36.839Z,67.52
2022-07-29T11:40:36.363Z,68.56
2022-07-29T11:41:35.675Z,68.05
2022-07-29T11:42:36.537Z,64.94
2022-07-29T11:43:36.622Z,66.03
2022-07-29T11:44:36.612Z,65.26
2022-07-29T11:45:44.413Z,63.00
2022-07-29T11:46:36.578Z,68.64
2022-07-29T11:47:36.985Z,67.38
2022-07-29T11:48:35.577Z,65.51
2022-07-29T11:49:35.601Z,65.00
2022-07-29T11:50:35.619Z,70.45
2022-07-29T11:51:35.556Z,68.85
2022-07-29T11:52:35.566Z,64.96
2022-07-29T11:53:37.357Z,70.25
2022-07-29T11:54:38.764Z,68.62
2022-07-29T11:55:36.525Z,67.56
2022-07-29T11:56:36.511Z,70.25
2022-07-29T11:57:36.198Z,64.72
2022-07-29T11:58:35.557Z,68.04
2022-07-29T11:59:35.533Z,68.93
2022-07-29T12:00:35.495Z,65.37
2022-07-29T12:01:36.361Z,59.85
2022-07-29T12:02:37.176Z,63.89
2022-07-29T12:03:36.787Z,69.08
2022-07-29T12:04:35.537Z,63.29
2022-07-29T12:05:36.842Z,67.15
2022-07-29T12:06:35.450Z,66.51
2022-07-29T12:07:36.353Z,62.26
2022-07-29T12:08:35.430Z,66.17
2022-07-29T12:09:40.288Z,63.57
2022-07-29T12:10:36.460Z,59.92
2022-07-29T12:11:36.367Z,69.89
2022-07-29T12:12:36.354Z,66.85
2022-07-29T12:13:37.541Z,65.98
2022-07-29T12:14:35.468Z,64.17
2022-07-29T12:15:46.040Z,68.52
2022-07-29T12:16:36.453Z,64.53
2022-07-29T12:17:35.392Z,63.95
2022-07-29T12:18:36.372Z,66.84
2022-07-29T12:19:35.394Z,68.27
2022-07-29T12:20:35.869Z,63.29
2022-07-29T12:21:35.374Z,68.58
2022-07-29T12:22:35.353Z,66.85
2022-07-29T12:23:35.632Z,62.27
2022-07-29T12:24:35.360Z,68.16
2022-07-29T12:25:35.310Z,67.55
2022-07-29T12:26:35.843Z,56.36
2022-07-29T12:27:35.346Z,67.46
2022-07-29T12:28:36.300Z,64.80
2022-07-29T12:29:35.961Z,66.76
2022-07-29T12:30:35.300Z,64.09
2022-07-29T12:31:44.051Z,66.74
2022-07-29T12:32:36.314Z,64.48
2022-07-29T12:33:35.256Z,71.11
2022-07-29T12:34:35.375Z,66.98
2022-07-29T12:35:35.237Z,68.12
2022-07-29T12:36:35.255Z,66.09
2022-07-29T12:37:41.241Z,66.41
2022-07-29T12:38:36.245Z,65.81
2022-07-29T12:39:35.236Z,62.76
2022-07-29T12:40:35.413Z,69.22
2022-07-29T12:41:35.233Z,65.53
2022-07-29T12:42:35.208Z,66.39
2022-07-29T12:43:35.193Z,67.87
2022-07-29T12:44:35.183Z,63.70
2022-07-29T12:45:35.224Z,67.13
2022-07-29T12:46:35.210Z,69.51
2022-07-29T12:47:35.228Z,66.99
2022-07-29T12:48:35.178Z,66.20
2022-07-29T12:49:38.053Z,64.57
2022-07-29T12:50:35.416Z,66.04
2022-07-29T12:51:35.160Z,68.85
2022-07-29T12:52:35.129Z,65.15
2022-07-29T12:53:36.125Z,64.14
2022-07-29T12:54:35.191Z,67.86
2022-07-29T12:55:35.110Z,66.73
2022-07-29T12:56:43.628Z,67.59
2022-07-29T12:57:37.093Z,59.98
2022-07-29T12:58:35.184Z,65.62
2022-07-29T12:59:35.877Z,57.80
2022-07-29T13:00:35.428Z,65.61
2022-07-29T13:01:35.066Z,61.09
2022-07-29T13:02:35.118Z,64.88
2022-07-29T13:03:35.883Z,65.95
2022-07-29T13:04:35.110Z,66.73
2022-07-29T13:05:35.052Z,66.45
2022-07-29T13:06:35.083Z,70.75
2022-07-29T13:07:54.608Z,68.36
2022-07-29T13:08:36.879Z,64.96
2022-07-29T13:09:35.018Z,65.78
2022-07-29T13:10:35.431Z,68.72
2022-07-29T13:11:35.027Z,68.36
2022-07-29T13:12:35.005Z,65.75
2022-07-29T13:13:34.987Z,66.20
2022-07-29T13:14:35.008Z,68.48
2022-07-29T13:15:34.999Z,68.16
2022-07-29T13:16:35.142Z,66.77
2022-07-29T13:17:35.047Z,63.75
2022-07-29T13:18:34.940Z,65.66
2022-07-29T13:19:34.953Z,66.89
2022-07-29T13:20:35.113Z,68.14
2022-07-29T13:21:34.944Z,68.15
2022-07-29T13:22:34.952Z,64.58
2022-07-29T13:23:38.155Z,66.72
2022-07-29T13:24:34.925Z,65.15
2022-07-29T13:25:34.895Z,59.79
2022-07-29T13:26:34.889Z,65.36
2022-07-29T13:27:34.919Z,55.61